createdAt,value
2022-11-13T13:58:32.507Z,98243.41
2022-11-13T14:01:27.839Z,98228.69
2022-11-13T14:04:15.856Z,98231.84
2022-11-13T14:07:03.727Z,98227.13
2022-11-13T14:09:50.878Z,98229.59
2022-11-13T14:12:41.702Z,98233.75
2022-11-13T14:15:30.456Z,98235.34
2022-11-13T14:18:18.366Z,98236.91
2022-11-13T14:21:07.365Z,98229.63
2022-11-13T14:23:54.473Z,98230.41
2022-11-13T14:26:41.180Z,98225.91
2022-11-13T14:29:35.865Z,98219.56
2022-11-13T14:32:25.965Z,98219.56
2022-11-13T14:35:20.346Z,98219.56
2022-11-13T14:38:07.350Z,98211.59
2022-11-13T14:40:54.317Z,98205.66
2022-11-13T14:43:41.618Z,98210.13
2022-11-13T14:46:33.136Z,98203.63
2022-11-13T14:49:30.026Z,98198.16
2022-11-13T14:52:24.761Z,98196.13
2022-11-13T14:55:22.251Z,98192.47
2022-11-13T14:58:14.209Z,98184.91
2022-11-13T15:01:01.424Z,98188.72
2022-11-13T15:03:49.167Z,98192.00
2022-11-13T15:06:38.952Z,98188.16
2022-11-13T15:09:26.654Z,98193.25
2022-11-13T15:12:14.101Z,98187.97
2022-11-13T15:15:01.626Z,98194.03
2022-11-13T15:17:49.534Z,98193.19
2022-11-13T15:20:37.023Z,98192.13
2022-11-13T15:23:29.650Z,98194.78
2022-11-13T15:26:19.458Z,98187.63
2022-11-13T15:29:06.193Z,98185.75
2022-11-13T15:31:53.469Z,98181.16
2022-11-13T15:34:40.417Z,98190.97
2022-11-13T15:37:27.069Z,98194.69
2022-11-13T15:40:18.029Z,98192.09
2022-11-13T15:43:05.591Z,98189.41
2022-11-13T15:45:52.202Z,98181.38
2022-11-13T15:48:38.913Z,98185.91
2022-11-13T15:51:26.690Z,98187.81
2022-11-13T15:54:17.817Z,98186.25
2022-11-13T15:57:08.231Z,98182.69
2022-11-13T15:59:55.020Z,98186.31
2022-11-13T16:02:42.103Z,98189.88
2022-11-13T16:05:50.059Z,98189.97
2022-11-13T16:08:38.157Z,98196.28
2022-11-13T16:11:25.778Z,98199.94
2022-11-13T16:14:20.695Z,98204.44
2022-11-13T16:17:13.547Z,98200.94
2022-11-13T16:20:02.746Z,98201.81
2022-11-13T16:22:50.119Z,98221.44
2022-11-13T16:25:37.726Z,98223.41
2022-11-13T16:28:25.512Z,98234.00
2022-11-13T16:31:13.963Z,98221.56
2022-11-13T16:34:02.161Z,98229.63
2022-11-13T16:36:49.651Z,98228.78
2022-11-13T16:39:37.593Z,98235.00
2022-11-13T16:42:30.682Z,98236.84
2022-11-13T16:45:18.262Z,98231.47
2022-11-13T16:48:07.727Z,98226.09
2022-11-13T16:50:55.681Z,98229.63
2022-11-13T16:53:43.425Z,98231.47
2022-11-13T16:56:31.465Z,98225.22
2022-11-13T16:59:20.536Z,98230.59
2022-11-13T17:02:14.070Z,98223.47
2022-11-13T17:05:03.447Z,98228.84
2022-11-13T17:07:51.970Z,98227.13
2022-11-13T17:10:39.514Z,98230.94
2022-11-13T17:13:27.185Z,98214.25
2022-11-13T17:16:15.810Z,98215.22
2022-11-13T17:19:04.149Z,98214.41
2022-11-13T17:21:53.643Z,98219.84
2022-11-13T17:24:41.977Z,98218.03
2022-11-13T17:27:29.538Z,98222.53
2022-11-13T17:30:17.803Z,98228.78
2022-11-13T17:33:05.588Z,98223.50
2022-11-13T17:35:56.569Z,98229.91
2022-11-13T17:38:45.812Z,98228.09
2022-11-13T17:41:34.411Z,98229.91
2022-11-13T17:44:24.631Z,98228.09
2022-11-13T17:47:11.836Z,98220.13
2022-11-13T17:50:06.716Z,98220.16
2022-11-13T17:52:54.970Z,98221.13
2022-11-13T17:55:45.167Z,98225.63
2022-11-13T17:58:32.406Z,98223.91
2022-11-13T18:01:21.029Z,98222.06
2022-11-13T18:04:07.813Z,98223.03
2022-11-13T18:06:55.672Z,98223.91
2022-11-13T18:09:43.197Z,98232.91
2022-11-13T18:12:32.794Z,98229.19
2022-11-13T18:15:20.038Z,98226.50
2022-11-13T18:18:08.087Z,98221.13
2022-11-13T18:20:55.207Z,98229.19
2022-11-13T18:23:42.751Z,98230.13
2022-11-13T18:26:30.809Z,98231.78
2022-11-13T18:29:19.433Z,98232.59
2022-11-13T18:32:06.645Z,98242.44
2022-11-13T18:34:54.536Z,98242.44
2022-11-13T18:37:41.675Z,98241.53
2022-11-13T18:40:28.957Z,98235.19
2022-11-13T18:43:16.960Z,98231.56
2022-11-13T18:46:06.225Z,98219.06
2022-11-13T18:48:53.339Z,98221.75
2022-11-13T18:51:40.804Z,98212.84
2022-11-13T18:54:28.323Z,98218.13
2022-11-13T18:57:15.751Z,98221.75
2022-11-13T19:00:03.133Z,98214.56
2022-11-13T19:02:53.354Z,98218.13
2022-11-13T19:05:44.917Z,98214.56
2022-11-13T19:08:35.054Z,98215.34
2022-11-13T19:11:24.492Z,98216.06
2022-11-13T19:14:12.190Z,98212.44
2022-11-13T19:16:59.433Z,98206.03
2022-11-13T19:19:48.381Z,98195.34
2022-11-13T19:22:35.945Z,98195.28
2022-11-13T19:25:23.684Z,98187.22
2022-11-13T19:28:11.206Z,98192.41
2022-11-13T19:30:58.335Z,98194.19
2022-11-13T19:33:46.163Z,98187.75
2022-11-13T19:36:35.029Z,98186.91
2022-11-13T19:39:22.095Z,98185.00
2022-11-13T19:42:09.587Z,98178.75
2022-11-13T19:44:56.693Z,98176.94
2022-11-13T19:47:46.095Z,98177.78
2022-11-13T19:50:33.307Z,98175.09
2022-11-13T19:53:22.981Z,98181.34
2022-11-13T19:56:10.405Z,98174.25
2022-11-13T19:58:58.054Z,98174.25
2022-11-13T20:01:45.866Z,98169.72
2022-11-13T20:04:33.463Z,98168.00
2022-11-13T20:07:20.746Z,98176.94
2022-11-13T20:10:11.475Z,98169.91
2022-11-13T20:12:59.019Z,98160.88
2022-11-13T20:15:46.381Z,98164.53
2022-11-13T20:18:33.646Z,98155.50
2022-11-13T20:21:25.320Z,98151.97
2022-11-13T20:24:12.780Z,98159.16
2022-11-13T20:27:01.513Z,98153.78
2022-11-13T20:29:49.093Z,98153.78
2022-11-13T20:32:38.541Z,98152.91
2022-11-13T20:35:25.482Z,98146.66
2022-11-13T20:38:12.911Z,98153.78
2022-11-13T20:40:59.850Z,98163.66
2022-11-13T20:43:49.312Z,98157.41
2022-11-13T20:46:36.375Z,98157.34
2022-11-13T20:49:24.005Z,98158.28
2022-11-13T20:52:12.353Z,98161.06
2022-11-13T20:54:59.406Z,98161.06
2022-11-13T20:57:46.906Z,98161.94
2022-11-13T21:00:35.495Z,98166.44
2022-11-13T21:03:23.186Z,98161.94
2022-11-13T21:06:10.917Z,98170.00
2022-11-13T21:08:58.300Z,98166.44
2022-11-13T21:11:46.241Z,98178.91
2022-11-13T21:14:33.530Z,98171.81
2022-11-13T21:17:22.242Z,98170.84
2022-11-13T21:20:10.969Z,98172.69
2022-11-13T21:22:58.909Z,98170.91
2022-11-13T21:25:46.623Z,98151.22
2022-11-13T21:28:34.197Z,98155.69
2022-11-13T21:31:22.006Z,98156.56
2022-11-13T21:34:14.262Z,98148.50
2022-11-13T21:37:01.735Z,98152.19
2022-11-13T21:39:48.844Z,98145.84
2022-11-13T21:42:36.195Z,98141.44
2022-11-13T21:45:24.105Z,98145.84
2022-11-13T21:48:11.317Z,98135.97
2022-11-13T21:51:01.384Z,98140.47
2022-11-13T21:53:48.332Z,98141.34
2022-11-13T21:56:38.150Z,98136.06
2022-11-13T21:59:25.162Z,98143.16
2022-11-13T22:02:12.551Z,98144.13
2022-11-13T22:05:00.047Z,98150.31
2022-11-13T22:07:48.789Z,98151.22
2022-11-13T22:10:35.816Z,98145.84
2022-11-13T22:13:23.444Z,98147.75
2022-11-13T22:16:11.120Z,98141.44
2022-11-13T22:18:59.202Z,98137.97
2022-11-13T22:21:46.478Z,98142.38
2022-11-13T22:24:35.429Z,98138.91
2022-11-13T22:27:22.677Z,98145.16
2022-11-13T22:30:11.026Z,98150.63
2022-11-13T22:32:58.465Z,98156.78
2022-11-13T22:35:45.494Z,98155.91
2022-11-13T22:38:32.900Z,98151.50
2022-11-13T22:41:23.797Z,98145.25
2022-11-13T22:44:13.643Z,98137.19
2022-11-13T22:47:01.056Z,98133.63
2022-11-13T22:49:47.913Z,98130.06
2022-11-13T22:52:35.200Z,98134.59
2022-11-13T22:55:22.453Z,98134.66
2022-11-13T22:58:12.028Z,98124.88
2022-11-13T23:01:05.686Z,98123.13
2022-11-13T23:03:53.225Z,98116.03
2022-11-13T23:06:40.730Z,98119.59
2022-11-13T23:09:29.526Z,98113.34
2022-11-13T23:12:16.336Z,98111.59
2022-11-13T23:15:05.781Z,98104.50
2022-11-13T23:17:53.410Z,98100.06
2022-11-13T23:20:41.199Z,98090.19
2022-11-13T23:23:28.585Z,98097.38
2022-11-13T23:26:16.133Z,98099.22
2022-11-13T23:29:03.780Z,98097.44
2022-11-13T23:31:52.973Z,98077.78
2022-11-13T23:34:58.556Z,98069.81
2022-11-13T23:37:48.262Z,98068.09
2022-11-13T23:40:35.753Z,98065.41
2022-11-13T23:43:24.857Z,98070.78
2022-11-13T23:46:20.137Z,98096.75
2022-11-13T23:49:09.058Z,98103.94
2022-11-13T23:51:56.253Z,98104.03
2022-11-13T23:54:43.949Z,98105.91
2022-11-13T23:57:31.261Z,98100.53
